Home > Products > Valid Products > TAF

000
FTUS43 KDVN 062300
TAFBRL
TAF
KBRL 062329Z 0700/0724 22006KT P6SM SCT200
     FM070400 23007KT P6SM BKN120
     FM071600 27012G19KT P6SM SCT060=



000
FTUS43 KDVN 062300
TAFDBQ
TAF
KDBQ 062329Z 0700/0724 22007KT P6SM SCT200
     FM070300 25006KT P6SM BKN100
     FM071500 28013G20KT P6SM SCT050=



000
FTUS43 KDVN 062300
TAFDBQ
TAF
KDBQ 062329Z 0700/0724 22007KT P6SM SCT200
     FM070300 25006KT P6SM BKN100
     FM071500 28013G20KT P6SM SCT050=



000
FTUS43 KDVN 062300
TAFMLI
TAF
KMLI 062329Z 0700/0724 21006KT P6SM SCT200
     FM070400 24005KT P6SM BKN100
     FM071600 27012G19KT P6SM SCT060=



000
FTUS43 KDVN 062300
TAFCID
TAF
KCID 062329Z 0700/0724 23006KT P6SM SCT200
     FM070300 25005KT P6SM BKN100
     FM071500 29014G21KT P6SM SCT050=



000
FTUS43 KDVN 062300
TAFMLI
TAF
KMLI 062329Z 0700/0724 21006KT P6SM SCT200
     FM070400 24005KT P6SM BKN100
     FM071600 27012G19KT P6SM SCT060=



000
FTUS43 KDVN 062300
TAFBRL
TAF
KBRL 062329Z 0700/0724 22006KT P6SM SCT200
     FM070400 23007KT P6SM BKN120
     FM071600 27012G19KT P6SM SCT060=



000
FTUS43 KDVN 062300
TAFCID
TAF
KCID 062329Z 0700/0724 23006KT P6SM SCT200
     FM070300 25005KT P6SM BKN100
     FM071500 29014G21KT P6SM SCT050=



000
FTUS43 KDVN 062000 AAA
TAFCID
TAF AMD
KCID 062000Z 0620/0718 23011KT P6SM SKC
     FM070300 25005KT P6SM BKN100
     FM071500 28010KT P6SM SCT080=



000
FTUS43 KDVN 061900 AAA
TAFMLI
TAF AMD
KMLI 061958Z 0620/0718 23013KT P6SM SKC
     FM070500 24005KT P6SM BKN100
     FM071600 27009KT P6SM SCT080=



000
FTUS43 KDVN 061900 AAA
TAFDBQ
TAF AMD
KDBQ 061958Z 0620/0718 24012KT P6SM SKC
     FM070300 25006KT P6SM BKN100
     FM071500 27010KT P6SM SCT080=



000
FTUS43 KDVN 061900 AAA
TAFBRL
TAF AMD
KBRL 061958Z 0620/0718 23012KT P6SM SKC
     FM070500 23007KT P6SM BKN150
     FM071600 27008KT P6SM SCT100=



000
FTUS43 KDVN 061700
TAFDBQ
TAF
KDBQ 061736Z 0618/0718 21013KT P6SM SKC
     FM070300 25006KT P6SM BKN100
     FM071500 27010KT P6SM SCT080=



000
FTUS43 KDVN 061700
TAFCID
TAF
KCID 061736Z 0618/0718 21012KT P6SM SKC
     FM070300 25005KT P6SM BKN100
     FM071500 28010KT P6SM SCT080=



000
FTUS43 KDVN 061700
TAFBRL
TAF
KBRL 061736Z 0618/0718 21016G22KT P6SM SKC
     FM062100 22011KT P6SM SKC
     FM070500 23007KT P6SM BKN150
     FM071600 27008KT P6SM SCT100=



000
FTUS43 KDVN 061700
TAFCID
TAF
KCID 061736Z 0618/0718 21012KT P6SM SKC
     FM070300 25005KT P6SM BKN100
     FM071500 28010KT P6SM SCT080=



000
FTUS43 KDVN 061700
TAFBRL
TAF
KBRL 061736Z 0618/0718 21016G22KT P6SM SKC
     FM062100 22011KT P6SM SKC
     FM070500 23007KT P6SM BKN150
     FM071600 27008KT P6SM SCT100=



000
FTUS43 KDVN 061700
TAFDBQ
TAF
KDBQ 061736Z 0618/0718 21013KT P6SM SKC
     FM070300 25006KT P6SM BKN100
     FM071500 27010KT P6SM SCT080=



000
FTUS43 KDVN 061700
TAFMLI
TAF
KMLI 061736Z 0618/0718 20013G22KT P6SM SKC
     FM062000 22011KT P6SM SKC
     FM070500 24005KT P6SM BKN100
     FM071600 27009KT P6SM SCT080=



000
FTUS43 KDVN 061700
TAFMLI
TAF
KMLI 061736Z 0618/0718 20013G22KT P6SM SKC
     FM062000 22011KT P6SM SKC
     FM070500 24005KT P6SM BKN100
     FM071600 27009KT P6SM SCT080=



000
FTUS43 KDVN 061100
TAFBRL
TAF
KBRL 061130Z 0612/0712 18011KT P6SM BKN100
     FM061600 22013G20KT P6SM SCT200
     FM070100 23007KT P6SM BKN200=



000
FTUS43 KDVN 061100
TAFMLI
TAF
KMLI 061130Z 0612/0712 19010KT P6SM BKN080
     FM061600 22013G20KT P6SM SCT150
     FM070100 24007KT P6SM BKN150=



000
FTUS43 KDVN 061100
TAFCID
TAF
KCID 061130Z 0612/0712 17010KT P6SM BKN080
     FM061600 22013G18KT P6SM SCT150
     FM070100 25008KT P6SM BKN100=



000
FTUS43 KDVN 061100
TAFDBQ
TAF
KDBQ 061130Z 0612/0712 18012KT P6SM BKN070
     FM061600 22013G20KT P6SM SCT150
     FM070100 24008KT P6SM BKN100=



000
FTUS43 KDVN 060500
TAFBRL
TAF
KBRL 060520Z 0606/0706 16005KT P6SM SKC
     FM061000 18009KT P6SM SCT100
     FM061600 22013G21KT P6SM SCT250
     FM070000 22006KT P6SM SCT250=



000
FTUS43 KDVN 060500
TAFCID
TAF
KCID 060520Z 0606/0706 15005KT P6SM SKC
     FM060900 17009KT P6SM SCT100
     FM061500 22012G18KT P6SM SCT250
     FM070000 23006KT P6SM SCT250=



000
FTUS43 KDVN 060500
TAFDBQ
TAF
KDBQ 060520Z 0606/0706 20005KT P6SM SKC
     FM060900 19009KT P6SM SCT100
     FM061600 22015G22KT P6SM SCT250
     FM070000 23008KT P6SM SCT250=



000
FTUS43 KDVN 060500
TAFMLI
TAF
KMLI 060520Z 0606/0706 18003KT P6SM SKC
     FM061000 18008KT P6SM SCT100
     FM061600 22013G21KT P6SM SCT250
     FM070000 23006KT P6SM SCT250=



000
FTUS43 KDVN 052300
TAFDBQ
TAF
KDBQ 052320Z 0600/0624 26009KT P6SM SKC
     FM060300 19006KT P6SM SKC
     FM060900 18009KT P6SM SCT100
     FM061600 22013G20KT P6SM SCT250=



000
FTUS43 KDVN 052300
TAFCID
TAF
KCID 052320Z 0600/0624 26006KT P6SM SKC
     FM060300 19006KT P6SM SKC
     FM060900 18009KT P6SM SCT100
     FM061500 22012G18KT P6SM SCT250=



000
FTUS43 KDVN 052300
TAFMLI
TAF
KMLI 052320Z 0600/0624 26008KT P6SM SKC
     FM060500 19006KT P6SM SKC
     FM061100 19010KT P6SM SCT100
     FM061600 22013G20KT P6SM SCT250=



000
FTUS43 KDVN 052300
TAFBRL
TAF
KBRL 052320Z 0600/0624 27006KT P6SM SKC
     FM060500 18008KT P6SM SKC
     FM061100 19009KT P6SM SCT100
     FM061600 22013G20KT P6SM SCT250=



000
FTUS43 KDVN 051700
TAFMLI
TAF
KMLI 051727Z 0518/0618 31008KT P6SM SKC
     FM060500 19006KT P6SM SKC
     FM061100 19010KT P6SM SCT100=



000
FTUS43 KDVN 051700
TAFBRL
TAF
KBRL 051727Z 0518/0618 30008KT P6SM SKC
     FM060500 18008KT P6SM SKC
     FM061100 19009KT P6SM SCT100=



000
FTUS43 KDVN 051700
TAFCID
TAF
KCID 051727Z 0518/0618 31008KT P6SM SKC
     FM060300 19006KT P6SM SKC
     FM060900 18009KT P6SM SCT100=



000
FTUS43 KDVN 051700
TAFDBQ
TAF
KDBQ 051727Z 0518/0618 32008KT P6SM SKC
     FM060300 19006KT P6SM SKC
     FM060900 18009KT P6SM SCT100=



000
FTUS43 KDVN 051100
TAFMLI
TAF
KMLI 051120Z 0512/0612 30006KT P6SM SKC
     FM060400 19006KT P6SM SKC=



000
FTUS43 KDVN 051100
TAFBRL
TAF
KBRL 051120Z 0512/0612 30006KT P6SM SKC
     FM060400 19006KT P6SM SKC=



000
FTUS43 KDVN 051100
TAFDBQ
TAF
KDBQ 051120Z 0512/0612 32006KT P6SM SKC
     FM060400 19006KT P6SM SKC=



000
FTUS43 KDVN 051100
TAFCID
TAF
KCID 051120Z 0512/0612 30006KT P6SM SKC
     FM060400 19006KT P6SM SKC=



000
FTUS43 KDVN 050500
TAFMLI
TAF
KMLI 050520Z 0506/0606 34006KT P6SM SCT040
     FM051100 31006KT P6SM SKC
     FM060000 VRB03KT P6SM SKC=



000
FTUS43 KDVN 050500
TAFDBQ
TAF
KDBQ 050520Z 0506/0606 32006KT P6SM FEW200
     FM051800 28008KT P6SM SKC
     FM060000 21004KT P6SM SKC=



000
FTUS43 KDVN 050500
TAFBRL
TAF
KBRL 050520Z 0506/0606 35007KT P6SM BKN040
     FM051100 32007KT P6SM SKC
     FM060000 VRB03KT P6SM SKC=



000
FTUS43 KDVN 050500
TAFCID
TAF
KCID 050520Z 0506/0606 31006KT P6SM FEW200
     FM051800 28008KT P6SM SKC
     FM060000 19004KT P6SM SKC=



000
FTUS43 KDVN 050500
TAFDBQ
TAF
KDBQ 050520Z 0506/0606 32006KT P6SM FEW200
     FM051800 28008KT P6SM SKC
     FM060000 21004KT P6SM SKC=



000
FTUS43 KDVN 050500
TAFCID
TAF
KCID 050520Z 0506/0606 31006KT P6SM FEW200
     FM051800 28008KT P6SM SKC
     FM060000 19004KT P6SM SKC=



000
FTUS43 KDVN 050500
TAFBRL
TAF
KBRL 050520Z 0506/0606 35007KT P6SM BKN040
     FM051100 32007KT P6SM SKC
     FM060000 VRB03KT P6SM SKC=



000
FTUS43 KDVN 050500
TAFMLI
TAF
KMLI 050520Z 0506/0606 34006KT P6SM SCT040
     FM051100 31006KT P6SM SKC
     FM060000 VRB03KT P6SM SKC=



000
FTUS43 KDVN 050100 AAA
TAFBRL
TAF AMD
KBRL 050158Z 0502/0524 35005KT P6SM SCT200
      TEMPO 0502/0505 BKN040
     FM051700 31007KT P6SM SKC=



000
FTUS43 KDVN 050100 AAA
TAFBRL
TAF AMD
KBRL 050158Z 0502/0524 35005KT P6SM SCT200
      TEMPO 0502/0505 BKN040
     FM051700 31007KT P6SM SKC=



000
FTUS43 KDVN 042300
TAFDBQ
TAF
KDBQ 042330Z 0500/0524 32007KT P6SM FEW200
     FM051700 28008KT P6SM SKC=



000
FTUS43 KDVN 042300
TAFMLI
TAF
KMLI 042330Z 0500/0524 32007KT P6SM SCT200
     FM051700 29008KT P6SM SKC=



000
FTUS43 KDVN 042300
TAFBRL
TAF
KBRL 042330Z 0500/0524 34007KT P6SM SCT200
     FM051700 31007KT P6SM SKC=



000
FTUS43 KDVN 042300
TAFCID
TAF
KCID 042330Z 0500/0524 32009KT P6SM SCT035
     FM050300 33008KT P6SM FEW200
     FM051600 29008KT P6SM SKC=



000
FTUS43 KDVN 042000 AAA
TAFDBQ
TAF AMD
KDBQ 042059Z 0421/0518 30013G18KT P6SM SCT110
     FM050000 32008KT P6SM SCT100
     FM051200 32007KT P6SM SKC=



000
FTUS43 KDVN 041700
TAFCID
TAF
KCID 041720Z 0418/0518 31014KT P6SM SCT150
     FM050000 31009KT P6SM SCT100
     FM051200 31008KT P6SM SKC=



000
FTUS43 KDVN 041700
TAFDBQ
TAF
KDBQ 041720Z 0418/0518 32013G18KT P6SM SCT110
     FM050000 32008KT P6SM SCT100
     FM051200 32007KT P6SM SKC=



000
FTUS43 KDVN 041700
TAFBRL
TAF
KBRL 041720Z 0418/0518 32013G18KT P6SM BKN100
     FM042100 33010KT P6SM BKN100
     FM050000 33007KT P6SM BKN100
     FM051200 32007KT P6SM SKC=



000
FTUS43 KDVN 041700
TAFCID
TAF
KCID 041720Z 0418/0518 31014KT P6SM SCT150
     FM050000 31009KT P6SM SCT100
     FM051200 31008KT P6SM SKC=



000
FTUS43 KDVN 041700
TAFMLI
TAF
KMLI 041720Z 0418/0518 31015G21KT P6SM BKN120
     FM042100 31012KT P6SM BKN120
     FM050000 31008KT P6SM SCT120
     FM051200 30007KT P6SM SKC=



000
FTUS43 KDVN 041700
TAFMLI
TAF
KMLI 041720Z 0418/0518 31015G21KT P6SM BKN120
     FM042100 31012KT P6SM BKN120
     FM050000 31008KT P6SM SCT120
     FM051200 30007KT P6SM SKC=



000
FTUS43 KDVN 041700
TAFDBQ
TAF
KDBQ 041720Z 0418/0518 32013G18KT P6SM SCT110
     FM050000 32008KT P6SM SCT100
     FM051200 32007KT P6SM SKC=



000
FTUS43 KDVN 041700
TAFBRL
TAF
KBRL 041720Z 0418/0518 32013G18KT P6SM BKN100
     FM042100 33010KT P6SM BKN100
     FM050000 33007KT P6SM BKN100
     FM051200 32007KT P6SM SKC=



000
FTUS43 KDVN 041600 AAA
TAFDBQ
TAF AMD
KDBQ 041601Z 0416/0512 33013G20KT P6SM SCT150
     FM050100 31008KT P6SM SKC=



000
FTUS43 KDVN 041600 AAA
TAFDBQ
TAF AMD
KDBQ 041601Z 0416/0512 33013G20KT P6SM SCT150
     FM050100 31008KT P6SM SKC=



000
FTUS43 KDVN 041400 AAA
TAFBRL
TAF AMD
KBRL 041438Z 0415/0512 33013G20KT P6SM BKN100
     FM050100 31008KT P6SM SKC=



000
FTUS43 KDVN 041400 AAA
TAFBRL
TAF AMD
KBRL 041438Z 0415/0512 33013G20KT P6SM BKN100
     FM050100 31008KT P6SM SKC=



000
FTUS43 KDVN 041100
TAFDBQ
TAF
KDBQ 041120Z 0412/0512 30013G20KT P6SM SCT150
     FM050100 31008KT P6SM SKC=



000
FTUS43 KDVN 041100
TAFBRL
TAF
KBRL 041120Z 0412/0512 30013G20KT P6SM BKN100
     FM050100 31008KT P6SM SKC=



000
FTUS43 KDVN 041100
TAFMLI
TAF
KMLI 041120Z 0412/0512 30013G20KT P6SM SCT150
     FM050100 31008KT P6SM SKC=



000
FTUS43 KDVN 041100
TAFCID
TAF
KCID 041120Z 0412/0512 30013G20KT P6SM SCT150
     FM050100 31008KT P6SM SKC=



000
FTUS43 KDVN 040500
TAFDBQ
TAF
KDBQ 040520Z 0406/0506 31014KT P6SM BKN150
     FM042200 30011KT P6SM BKN050=



000
FTUS43 KDVN 040500
TAFCID
TAF
KCID 040520Z 0406/0506 32014KT P6SM BKN150
     FM042300 31009KT P6SM BKN050=



000
FTUS43 KDVN 040500
TAFBRL
TAF
KBRL 040520Z 0406/0506 33015G22KT P6SM SCT015 BKN150
     FM040800 33012KT P6SM BKN150
     FM042300 33007KT P6SM SCT050=



000
FTUS43 KDVN 040500
TAFMLI
TAF
KMLI 040520Z 0406/0506 30018G24KT P6SM SCT020
     FM040700 31013KT P6SM BKN150
     FM042300 31009KT P6SM SCT050=



000
FTUS43 KDVN 040500 AAB
TAFBRL
TAF AMD
KBRL 040505Z 0405/0424 33015G22KT P6SM SCT015 BKN150
     FM040800 33012KT P6SM BKN150=



000
FTUS43 KDVN 040500 AAB
TAFBRL
TAF AMD
KBRL 040505Z 0405/0424 33015G22KT P6SM SCT015 BKN150
     FM040800 33012KT P6SM BKN150=



000
FTUS43 KDVN 040400 AAA
TAFBRL
TAF AMD
KBRL 040432Z 0405/0424 32014G21KT P6SM OVC018
     FM040700 33012KT P6SM BKN150=



000
FTUS43 KDVN 040400 AAA
TAFMLI
TAF AMD
KMLI 040431Z 0405/0424 30015G23KT P6SM OVC020
     FM040700 31012KT P6SM BKN150=



000
FTUS43 KDVN 040400 AAA
TAFDBQ
TAF AMD
KDBQ 040429Z 0404/0424 31018G24KT P6SM SCT015
     FM040800 32013KT P6SM BKN150=



000
FTUS43 KDVN 040400 AAA
TAFCID
TAF AMD
KCID 040427Z 0404/0424 31017G28KT P6SM SCT120
     FM040900 32014KT P6SM BKN150=



    US Dept of Commerce
    National Oceanic and Atmospheric Administration
    National Weather Service
    1325 East West Highway
    Silver Spring, MD 20910
    Page Author: NWS Internet Services Team
Disclaimer
Information Quality
Credits
Glossary
Privacy Policy
Freedom of Information Act (FOIA)
About Us
Career Opportunities